sensor_id;sensor_type;location;lat;lon;timestamp;P1;durP1;ratioP1;P2;durP2;ratioP2
38609;SDS011;24367;51.640;9.566;2023-02-10T00:00:51;10.68;;;9.15;;
38609;SDS011;24367;51.640;9.566;2023-02-10T00:03:18;11.05;;;9.95;;
38609;SDS011;24367;51.640;9.566;2023-02-10T00:05:44;11.00;;;9.80;;
38609;SDS011;24367;51.640;9.566;2023-02-10T00:08:11;10.95;;;9.85;;
38609;SDS011;24367;51.640;9.566;2023-02-10T00:10:38;10.85;;;9.80;;
38609;SDS011;24367;51.640;9.566;2023-02-10T00:13:05;10.82;;;9.73;;
38609;SDS011;24367;51.640;9.566;2023-02-10T00:15:31;10.98;;;9.88;;
38609;SDS011;24367;51.640;9.566;2023-02-10T00:17:57;11.45;;;10.25;;
38609;SDS011;24367;51.640;9.566;2023-02-10T00:20:24;12.20;;;10.07;;
38609;SDS011;24367;51.640;9.566;2023-02-10T00:22:50;10.63;;;9.57;;
38609;SDS011;24367;51.640;9.566;2023-02-10T00:25:16;11.00;;;9.75;;
38609;SDS011;24367;51.640;9.566;2023-02-10T00:27:44;11.45;;;10.25;;
38609;SDS011;24367;51.640;9.566;2023-02-10T00:30:11;11.68;;;10.52;;
38609;SDS011;24367;51.640;9.566;2023-02-10T00:32:38;11.88;;;10.68;;
38609;SDS011;24367;51.640;9.566;2023-02-10T00:35:05;11.60;;;10.40;;
38609;SDS011;24367;51.640;9.566;2023-02-10T00:37:32;11.00;;;9.95;;
38609;SDS011;24367;51.640;9.566;2023-02-10T00:39:58;11.90;;;10.70;;
38609;SDS011;24367;51.640;9.566;2023-02-10T00:42:25;11.63;;;10.43;;
38609;SDS011;24367;51.640;9.566;2023-02-10T00:44:53;12.30;;;11.10;;
38609;SDS011;24367;51.640;9.566;2023-02-10T00:47:20;11.18;;;10.07;;
38609;SDS011;24367;51.640;9.566;2023-02-10T00:49:48;11.30;;;10.20;;
38609;SDS011;24367;51.640;9.566;2023-02-10T00:52:15;12.10;;;10.85;;
38609;SDS011;24367;51.640;9.566;2023-02-10T00:54:41;11.20;;;10.10;;
38609;SDS011;24367;51.640;9.566;2023-02-10T00:57:07;11.43;;;10.23;;
38609;SDS011;24367;51.640;9.566;2023-02-10T00:59:34;11.00;;;9.90;;
38609;SDS011;24367;51.640;9.566;2023-02-10T01:02:02;10.80;;;9.70;;
38609;SDS011;24367;51.640;9.566;2023-02-10T01:04:28;11.55;;;10.45;;
38609;SDS011;24367;51.640;9.566;2023-02-10T01:06:54;11.50;;;10.27;;
38609;SDS011;24367;51.640;9.566;2023-02-10T01:09:21;11.65;;;10.45;;
38609;SDS011;24367;51.640;9.566;2023-02-10T01:11:48;11.35;;;10.25;;
38609;SDS011;24367;51.640;9.566;2023-02-10T01:14:14;11.88;;;10.60;;
38609;SDS011;24367;51.640;9.566;2023-02-10T01:16:41;10.90;;;9.80;;
38609;SDS011;24367;51.640;9.566;2023-02-10T01:19:09;12.05;;;10.30;;
38609;SDS011;24367;51.640;9.566;2023-02-10T01:21:35;11.60;;;10.48;;
38609;SDS011;24367;51.640;9.566;2023-02-10T01:24:03;11.82;;;10.65;;
38609;SDS011;24367;51.640;9.566;2023-02-10T01:26:30;11.57;;;10.48;;
38609;SDS011;24367;51.640;9.566;2023-02-10T01:28:57;11.60;;;10.50;;
38609;SDS011;24367;51.640;9.566;2023-02-10T01:31:23;11.77;;;10.57;;
38609;SDS011;24367;51.640;9.566;2023-02-10T01:33:50;11.32;;;10.23;;
38609;SDS011;24367;51.640;9.566;2023-02-10T01:36:20;12.05;;;10.85;;
38609;SDS011;24367;51.640;9.566;2023-02-10T01:38:48;11.45;;;10.35;;
38609;SDS011;24367;51.640;9.566;2023-02-10T01:41:15;11.15;;;10.05;;
38609;SDS011;24367;51.640;9.566;2023-02-10T01:43:53;11.40;;;10.23;;
38609;SDS011;24367;51.640;9.566;2023-02-10T01:46:21;11.77;;;10.57;;
38609;SDS011;24367;51.640;9.566;2023-02-10T01:48:48;11.50;;;10.30;;
38609;SDS011;24367;51.640;9.566;2023-02-10T01:51:15;11.20;;;10.10;;
38609;SDS011;24367;51.640;9.566;2023-02-10T01:53:43;11.05;;;9.95;;
38609;SDS011;24367;51.640;9.566;2023-02-10T01:56:10;11.30;;;10.20;;
38609;SDS011;24367;51.640;9.566;2023-02-10T01:58:38;12.05;;;10.88;;
38609;SDS011;24367;51.640;9.566;2023-02-10T02:01:06;11.30;;;10.20;;
38609;SDS011;24367;51.640;9.566;2023-02-10T02:03:32;11.13;;;10.02;;
38609;SDS011;24367;51.640;9.566;2023-02-10T02:05:59;11.68;;;10.52;;
38609;SDS011;24367;51.640;9.566;2023-02-10T02:08:26;11.40;;;10.27;;
38609;SDS011;24367;51.640;9.566;2023-02-10T02:10:57;10.80;;;9.80;;
38609;SDS011;24367;51.640;9.566;2023-02-10T02:13:33;11.68;;;10.48;;
38609;SDS011;24367;51.640;9.566;2023-02-10T02:16:07;11.00;;;9.90;;
38609;SDS011;24367;51.640;9.566;2023-02-10T02:18:39;11.30;;;10.20;;
38609;SDS011;24367;51.640;9.566;2023-02-10T02:26:58;11.27;;;10.05;;
38609;SDS011;24367;51.640;9.566;2023-02-10T02:29:43;11.05;;;9.98;;
38609;SDS011;24367;51.640;9.566;2023-02-10T02:32:23;11.48;;;10.18;;
38609;SDS011;24367;51.640;9.566;2023-02-10T02:34:51;10.52;;;9.50;;
38609;SDS011;24367;51.640;9.566;2023-02-10T02:37:21;11.65;;;10.13;;
38609;SDS011;24367;51.640;9.566;2023-02-10T02:39:49;11.43;;;10.32;;
38609;SDS011;24367;51.640;9.566;2023-02-10T02:42:18;11.20;;;10.10;;
38609;SDS011;24367;51.640;9.566;2023-02-10T02:44:47;11.25;;;10.07;;
38609;SDS011;24367;51.640;9.566;2023-02-10T02:47:18;10.55;;;9.55;;
38609;SDS011;24367;51.640;9.566;2023-02-10T02:49:53;11.57;;;10.40;;
38609;SDS011;24367;51.640;9.566;2023-02-10T02:52:27;10.93;;;9.82;;
38609;SDS011;24367;51.640;9.566;2023-02-10T02:54:59;11.40;;;10.30;;
38609;SDS011;24367;51.640;9.566;2023-02-10T02:57:31;11.15;;;10.05;;
38609;SDS011;24367;51.640;9.566;2023-02-10T03:00:05;11.27;;;10.18;;
38609;SDS011;24367;51.640;9.566;2023-02-10T03:02:36;11.05;;;9.90;;
38609;SDS011;24367;51.640;9.566;2023-02-10T03:05:06;11.00;;;9.82;;
38609;SDS011;24367;51.640;9.566;2023-02-10T03:07:33;11.05;;;9.98;;
38609;SDS011;24367;51.640;9.566;2023-02-10T03:09:59;11.57;;;10.38;;
38609;SDS011;24367;51.640;9.566;2023-02-10T03:12:26;11.73;;;10.52;;
38609;SDS011;24367;51.640;9.566;2023-02-10T03:14:52;11.27;;;10.18;;
38609;SDS011;24367;51.640;9.566;2023-02-10T03:17:19;11.05;;;9.95;;
38609;SDS011;24367;51.640;9.566;2023-02-10T03:19:46;11.07;;;10.00;;
38609;SDS011;24367;51.640;9.566;2023-02-10T03:22:13;11.23;;;10.05;;
38609;SDS011;24367;51.640;9.566;2023-02-10T03:24:39;11.30;;;10.18;;
38609;SDS011;24367;51.640;9.566;2023-02-10T03:27:06;11.90;;;10.70;;
38609;SDS011;24367;51.640;9.566;2023-02-10T03:29:32;11.10;;;10.00;;
38609;SDS011;24367;51.640;9.566;2023-02-10T03:31:58;10.82;;;9.73;;
38609;SDS011;24367;51.640;9.566;2023-02-10T03:34:26;10.70;;;9.63;;
38609;SDS011;24367;51.640;9.566;2023-02-10T03:36:54;11.25;;;10.15;;
38609;SDS011;24367;51.640;9.566;2023-02-10T03:39:21;10.48;;;9.38;;
38609;SDS011;24367;51.640;9.566;2023-02-10T03:41:47;10.43;;;9.43;;
38609;SDS011;24367;51.640;9.566;2023-02-10T03:44:13;11.00;;;9.90;;
38609;SDS011;24367;51.640;9.566;2023-02-10T03:46:40;11.00;;;9.88;;
38609;SDS011;24367;51.640;9.566;2023-02-10T03:49:06;11.38;;;10.23;;
38609;SDS011;24367;51.640;9.566;2023-02-10T03:51:32;11.20;;;10.00;;
38609;SDS011;24367;51.640;9.566;2023-02-10T03:54:00;11.05;;;9.95;;
38609;SDS011;24367;51.640;9.566;2023-02-10T03:56:27;10.13;;;9.13;;
38609;SDS011;24367;51.640;9.566;2023-02-10T03:58:53;10.02;;;9.00;;
38609;SDS011;24367;51.640;9.566;2023-02-10T04:01:19;10.32;;;9.10;;
38609;SDS011;24367;51.640;9.566;2023-02-10T04:03:46;10.57;;;9.48;;
38609;SDS011;24367;51.640;9.566;2023-02-10T04:06:13;10.52;;;9.43;;
38609;SDS011;24367;51.640;9.566;2023-02-10T04:08:39;10.60;;;9.60;;
38609;SDS011;24367;51.640;9.566;2023-02-10T04:11:07;10.50;;;9.40;;
38609;SDS011;24367;51.640;9.566;2023-02-10T04:13:34;10.93;;;9.82;;
38609;SDS011;24367;51.640;9.566;2023-02-10T04:16:01;10.30;;;9.23;;
38609;SDS011;24367;51.640;9.566;2023-02-10T04:18:28;9.45;;;8.52;;
38609;SDS011;24367;51.640;9.566;2023-02-10T04:20:55;9.57;;;8.57;;
38609;SDS011;24367;51.640;9.566;2023-02-10T04:23:22;10.60;;;9.38;;
38609;SDS011;24367;51.640;9.566;2023-02-10T04:25:48;9.43;;;8.48;;
38609;SDS011;24367;51.640;9.566;2023-02-10T04:28:16;10.02;;;8.90;;
38609;SDS011;24367;51.640;9.566;2023-02-10T04:30:42;11.25;;;9.68;;
38609;SDS011;24367;51.640;9.566;2023-02-10T04:33:08;9.50;;;8.50;;
38609;SDS011;24367;51.640;9.566;2023-02-10T04:35:35;9.05;;;8.15;;
38609;SDS011;24367;51.640;9.566;2023-02-10T04:38:01;9.35;;;8.45;;
38609;SDS011;24367;51.640;9.566;2023-02-10T04:40:28;10.02;;;9.02;;
38609;SDS011;24367;51.640;9.566;2023-02-10T04:42:55;9.80;;;8.80;;
38609;SDS011;24367;51.640;9.566;2023-02-10T04:45:23;9.10;;;8.20;;
38609;SDS011;24367;51.640;9.566;2023-02-10T04:47:49;9.82;;;8.82;;
38609;SDS011;24367;51.640;9.566;2023-02-10T04:50:15;10.05;;;8.65;;
38609;SDS011;24367;51.640;9.566;2023-02-10T04:52:42;8.57;;;7.72;;
38609;SDS011;24367;51.640;9.566;2023-02-10T04:55:08;9.40;;;8.40;;
38609;SDS011;24367;51.640;9.566;2023-02-10T04:57:35;9.05;;;8.05;;
38609;SDS011;24367;51.640;9.566;2023-02-10T05:00:02;9.35;;;8.35;;
38609;SDS011;24367;51.640;9.566;2023-02-10T05:02:30;8.90;;;8.00;;
38609;SDS011;24367;51.640;9.566;2023-02-10T05:04:56;10.02;;;8.63;;
38609;SDS011;24367;51.640;9.566;2023-02-10T05:07:23;9.63;;;8.38;;
38609;SDS011;24367;51.640;9.566;2023-02-10T05:09:49;8.45;;;7.63;;
38609;SDS011;24367;51.640;9.566;2023-02-10T05:12:15;9.18;;;7.78;;
38609;SDS011;24367;51.640;9.566;2023-02-10T05:14:42;8.45;;;7.65;;
38609;SDS011;24367;51.640;9.566;2023-02-10T05:17:08;8.57;;;7.60;;
38609;SDS011;24367;51.640;9.566;2023-02-10T05:19:36;8.68;;;7.78;;
38609;SDS011;24367;51.640;9.566;2023-02-10T05:22:02;8.18;;;7.32;;
38609;SDS011;24367;51.640;9.566;2023-02-10T05:24:29;8.73;;;7.82;;
38609;SDS011;24367;51.640;9.566;2023-02-10T05:26:55;9.10;;;8.15;;
38609;SDS011;24367;51.640;9.566;2023-02-10T05:29:21;8.60;;;7.55;;
38609;SDS011;24367;51.640;9.566;2023-02-10T05:31:48;8.68;;;7.78;;
38609;SDS011;24367;51.640;9.566;2023-02-10T05:34:14;8.77;;;7.82;;
38609;SDS011;24367;51.640;9.566;2023-02-10T05:36:42;7.95;;;7.13;;
38609;SDS011;24367;51.640;9.566;2023-02-10T05:39:09;8.38;;;7.13;;
38609;SDS011;24367;51.640;9.566;2023-02-10T05:41:51;8.20;;;7.40;;
38609;SDS011;24367;51.640;9.566;2023-02-10T05:44:17;8.95;;;7.03;;
38609;SDS011;24367;51.640;9.566;2023-02-10T05:46:44;7.78;;;6.78;;
38609;SDS011;24367;51.640;9.566;2023-02-10T05:49:10;8.45;;;7.38;;
38609;SDS011;24367;51.640;9.566;2023-02-10T05:51:37;8.18;;;7.22;;
38609;SDS011;24367;51.640;9.566;2023-02-10T05:54:04;8.60;;;7.28;;
38609;SDS011;24367;51.640;9.566;2023-02-10T05:56:31;7.65;;;6.63;;
38609;SDS011;24367;51.640;9.566;2023-02-10T05:58:57;8.52;;;6.80;;
38609;SDS011;24367;51.640;9.566;2023-02-10T06:01:24;7.57;;;6.78;;
38609;SDS011;24367;51.640;9.566;2023-02-10T06:03:50;8.02;;;6.75;;
38609;SDS011;24367;51.640;9.566;2023-02-10T06:06:17;10.32;;;6.88;;
38609;SDS011;24367;51.640;9.566;2023-02-10T06:08:43;9.07;;;6.95;;
38609;SDS011;24367;51.640;9.566;2023-02-10T06:11:11;8.10;;;7.30;;
38609;SDS011;24367;51.640;9.566;2023-02-10T06:13:38;8.30;;;7.15;;
38609;SDS011;24367;51.640;9.566;2023-02-10T06:16:04;11.73;;;6.85;;
38609;SDS011;24367;51.640;9.566;2023-02-10T06:18:31;11.43;;;7.25;;
38609;SDS011;24367;51.640;9.566;2023-02-10T06:20:58;10.07;;;7.00;;
38609;SDS011;24367;51.640;9.566;2023-02-10T06:23:24;10.52;;;6.60;;
38609;SDS011;24367;51.640;9.566;2023-02-10T06:25:51;10.73;;;7.18;;
38609;SDS011;24367;51.640;9.566;2023-02-10T06:28:21;8.80;;;6.30;;
38609;SDS011;24367;51.640;9.566;2023-02-10T06:30:47;9.43;;;6.50;;
38609;SDS011;24367;51.640;9.566;2023-02-10T06:33:13;8.65;;;6.05;;
38609;SDS011;24367;51.640;9.566;2023-02-10T06:35:40;8.50;;;6.88;;
38609;SDS011;24367;51.640;9.566;2023-02-10T06:38:06;10.13;;;7.15;;
38609;SDS011;24367;51.640;9.566;2023-02-10T06:40:33;14.73;;;6.88;;
38609;SDS011;24367;51.640;9.566;2023-02-10T06:42:59;9.85;;;6.10;;
38609;SDS011;24367;51.640;9.566;2023-02-10T06:45:27;8.15;;;6.15;;
38609;SDS011;24367;51.640;9.566;2023-02-10T06:47:55;8.75;;;7.35;;
38609;SDS011;24367;51.640;9.566;2023-02-10T06:50:21;8.93;;;6.50;;
38609;SDS011;24367;51.640;9.566;2023-02-10T06:52:48;9.75;;;7.63;;
38609;SDS011;24367;51.640;9.566;2023-02-10T06:55:14;9.98;;;7.20;;
38609;SDS011;24367;51.640;9.566;2023-02-10T06:57:41;8.52;;;7.03;;
38609;SDS011;24367;51.640;9.566;2023-02-10T07:00:08;10.25;;;7.00;;
38609;SDS011;24367;51.640;9.566;2023-02-10T07:02:37;11.43;;;7.13;;
38609;SDS011;24367;51.640;9.566;2023-02-10T07:05:04;8.80;;;6.82;;
38609;SDS011;24367;51.640;9.566;2023-02-10T07:07:32;13.98;;;7.00;;
38609;SDS011;24367;51.640;9.566;2023-02-10T07:09:59;8.13;;;6.60;;
38609;SDS011;24367;51.640;9.566;2023-02-10T07:12:25;8.25;;;7.00;;
38609;SDS011;24367;51.640;9.566;2023-02-10T07:14:51;10.27;;;6.95;;
38609;SDS011;24367;51.640;9.566;2023-02-10T07:17:18;13.00;;;6.32;;
38609;SDS011;24367;51.640;9.566;2023-02-10T07:19:47;8.80;;;6.45;;
38609;SDS011;24367;51.640;9.566;2023-02-10T07:22:13;10.20;;;7.07;;
38609;SDS011;24367;51.640;9.566;2023-02-10T07:24:39;9.93;;;6.40;;
38609;SDS011;24367;51.640;9.566;2023-02-10T07:27:06;10.40;;;6.70;;
38609;SDS011;24367;51.640;9.566;2023-02-10T07:29:32;12.85;;;6.50;;
38609;SDS011;24367;51.640;9.566;2023-02-10T07:31:59;7.60;;;5.93;;
38609;SDS011;24367;51.640;9.566;2023-02-10T07:34:25;8.85;;;6.63;;
38609;SDS011;24367;51.640;9.566;2023-02-10T07:36:53;9.80;;;6.93;;
38609;SDS011;24367;51.640;9.566;2023-02-10T07:39:20;7.43;;;5.93;;
38609;SDS011;24367;51.640;9.566;2023-02-10T07:41:46;7.97;;;5.78;;
38609;SDS011;24367;51.640;9.566;2023-02-10T07:44:12;10.13;;;6.35;;
38609;SDS011;24367;51.640;9.566;2023-02-10T07:46:39;7.63;;;5.70;;
38609;SDS011;24367;51.640;9.566;2023-02-10T07:49:05;8.18;;;6.50;;
38609;SDS011;24367;51.640;9.566;2023-02-10T07:51:32;8.75;;;5.93;;
38609;SDS011;24367;51.640;9.566;2023-02-10T07:53:59;9.20;;;7.05;;
38609;SDS011;24367;51.640;9.566;2023-02-10T07:56:26;9.10;;;6.38;;
38609;SDS011;24367;51.640;9.566;2023-02-10T07:58:52;7.40;;;6.40;;
38609;SDS011;24367;51.640;9.566;2023-02-10T08:01:19;9.32;;;6.43;;
38609;SDS011;24367;51.640;9.566;2023-02-10T08:03:45;10.18;;;6.72;;
38609;SDS011;24367;51.640;9.566;2023-02-10T08:06:11;9.35;;;6.50;;
38609;SDS011;24367;51.640;9.566;2023-02-10T08:08:38;8.40;;;6.35;;
38609;SDS011;24367;51.640;9.566;2023-02-10T08:11:06;8.45;;;6.75;;
38609;SDS011;24367;51.640;9.566;2023-02-10T08:13:32;9.90;;;6.82;;
38609;SDS011;24367;51.640;9.566;2023-02-10T08:15:58;10.07;;;6.68;;
38609;SDS011;24367;51.640;9.566;2023-02-10T08:18:25;9.10;;;6.63;;
38609;SDS011;24367;51.640;9.566;2023-02-10T08:20:51;8.35;;;6.13;;
38609;SDS011;24367;51.640;9.566;2023-02-10T08:23:18;9.20;;;6.57;;
38609;SDS011;24367;51.640;9.566;2023-02-10T08:25:44;9.27;;;6.18;;
38609;SDS011;24367;51.640;9.566;2023-02-10T08:28:12;9.10;;;6.18;;
38609;SDS011;24367;51.640;9.566;2023-02-10T08:30:38;7.75;;;6.20;;
38609;SDS011;24367;51.640;9.566;2023-02-10T08:33:04;9.35;;;6.13;;
38609;SDS011;24367;51.640;9.566;2023-02-10T08:35:31;8.93;;;6.25;;
38609;SDS011;24367;51.640;9.566;2023-02-10T08:37:57;8.73;;;6.35;;
38609;SDS011;24367;51.640;9.566;2023-02-10T08:40:23;8.80;;;6.10;;
38609;SDS011;24367;51.640;9.566;2023-02-10T08:42:50;8.48;;;6.25;;
38609;SDS011;24367;51.640;9.566;2023-02-10T08:45:21;8.65;;;6.68;;
38609;SDS011;24367;51.640;9.566;2023-02-10T08:47:48;9.32;;;6.90;;
38609;SDS011;24367;51.640;9.566;2023-02-10T08:50:15;7.95;;;6.45;;
38609;SDS011;24367;51.640;9.566;2023-02-10T08:52:41;9.40;;;6.85;;
38609;SDS011;24367;51.640;9.566;2023-02-10T08:55:08;9.82;;;6.70;;
38609;SDS011;24367;51.640;9.566;2023-02-10T08:57:37;9.32;;;6.72;;
38609;SDS011;24367;51.640;9.566;2023-02-10T09:00:04;7.95;;;5.78;;
38609;SDS011;24367;51.640;9.566;2023-02-10T09:02:33;8.82;;;6.93;;
38609;SDS011;24367;51.640;9.566;2023-02-10T09:05:00;8.77;;;6.57;;
38609;SDS011;24367;51.640;9.566;2023-02-10T09:07:27;8.75;;;6.47;;
38609;SDS011;24367;51.640;9.566;2023-02-10T09:09:53;7.80;;;6.40;;
38609;SDS011;24367;51.640;9.566;2023-02-10T09:12:20;9.23;;;6.53;;
38609;SDS011;24367;51.640;9.566;2023-02-10T09:14:46;9.70;;;6.35;;
38609;SDS011;24367;51.640;9.566;2023-02-10T09:17:12;8.65;;;6.95;;
38609;SDS011;24367;51.640;9.566;2023-02-10T09:19:40;8.35;;;6.43;;
38609;SDS011;24367;51.640;9.566;2023-02-10T09:22:07;8.63;;;6.13;;
38609;SDS011;24367;51.640;9.566;2023-02-10T09:24:33;8.38;;;6.38;;
38609;SDS011;24367;51.640;9.566;2023-02-10T09:27:03;8.18;;;6.60;;
38609;SDS011;24367;51.640;9.566;2023-02-10T09:29:31;7.15;;;6.22;;
38609;SDS011;24367;51.640;9.566;2023-02-10T09:31:58;8.82;;;6.40;;
38609;SDS011;24367;51.640;9.566;2023-02-10T09:34:24;7.10;;;6.07;;
38609;SDS011;24367;51.640;9.566;2023-02-10T09:36:56;8.30;;;6.68;;
38609;SDS011;24367;51.640;9.566;2023-02-10T09:39:26;9.10;;;6.30;;
38609;SDS011;24367;51.640;9.566;2023-02-10T09:41:55;7.47;;;6.10;;
38609;SDS011;24367;51.640;9.566;2023-02-10T09:44:24;7.13;;;6.38;;
38609;SDS011;24367;51.640;9.566;2023-02-10T09:46:59;7.43;;;6.15;;
38609;SDS011;24367;51.640;9.566;2023-02-10T09:49:41;10.75;;;6.50;;
38609;SDS011;24367;51.640;9.566;2023-02-10T09:52:36;9.88;;;6.20;;
38609;SDS011;24367;51.640;9.566;2023-02-10T09:55:09;8.20;;;6.40;;
38609;SDS011;24367;51.640;9.566;2023-02-10T09:57:39;8.60;;;6.57;;
38609;SDS011;24367;51.640;9.566;2023-02-10T10:00:12;7.65;;;5.85;;
38609;SDS011;24367;51.640;9.566;2023-02-10T10:02:45;8.45;;;6.55;;
38609;SDS011;24367;51.640;9.566;2023-02-10T10:05:25;8.50;;;6.28;;
38609;SDS011;24367;51.640;9.566;2023-02-10T10:08:02;8.18;;;6.38;;
38609;SDS011;24367;51.640;9.566;2023-02-10T10:10:32;9.18;;;6.63;;
38609;SDS011;24367;51.640;9.566;2023-02-10T10:13:01;7.57;;;6.13;;
38609;SDS011;24367;51.640;9.566;2023-02-10T10:15:29;7.82;;;6.18;;
38609;SDS011;24367;51.640;9.566;2023-02-10T10:18:01;8.38;;;6.80;;
38609;SDS011;24367;51.640;9.566;2023-02-10T10:20:35;8.02;;;6.30;;
38609;SDS011;24367;51.640;9.566;2023-02-10T10:23:22;7.25;;;5.97;;
38609;SDS011;24367;51.640;9.566;2023-02-10T10:25:59;8.90;;;6.53;;
38609;SDS011;24367;51.640;9.566;2023-02-10T10:28:31;8.43;;;6.28;;
38609;SDS011;24367;51.640;9.566;2023-02-10T10:31:06;8.23;;;6.10;;
38609;SDS011;24367;51.640;9.566;2023-02-10T10:33:36;7.95;;;6.55;;
38609;SDS011;24367;51.640;9.566;2023-02-10T10:36:08;8.55;;;6.53;;
38609;SDS011;24367;51.640;9.566;2023-02-10T10:38:40;7.47;;;6.07;;
38609;SDS011;24367;51.640;9.566;2023-02-10T10:41:11;9.02;;;7.07;;
38609;SDS011;24367;51.640;9.566;2023-02-10T10:43:40;8.52;;;6.68;;
38609;SDS011;24367;51.640;9.566;2023-02-10T10:46:11;9.98;;;6.65;;
38609;SDS011;24367;51.640;9.566;2023-02-10T10:48:40;8.57;;;6.75;;
38609;SDS011;24367;51.640;9.566;2023-02-10T10:51:07;8.43;;;6.30;;
38609;SDS011;24367;51.640;9.566;2023-02-10T10:53:35;9.98;;;6.75;;
38609;SDS011;24367;51.640;9.566;2023-02-10T10:56:06;8.82;;;6.57;;
38609;SDS011;24367;51.640;9.566;2023-02-10T10:58:35;7.15;;;5.65;;
38609;SDS011;24367;51.640;9.566;2023-02-10T11:01:03;8.00;;;6.22;;
38609;SDS011;24367;51.640;9.566;2023-02-10T11:03:30;10.07;;;6.95;;
38609;SDS011;24367;51.640;9.566;2023-02-10T11:05:58;9.52;;;7.35;;
38609;SDS011;24367;51.640;9.566;2023-02-10T11:08:27;9.07;;;6.63;;
38609;SDS011;24367;51.640;9.566;2023-02-10T11:10:57;7.88;;;6.35;;
38609;SDS011;24367;51.640;9.566;2023-02-10T11:13:25;9.90;;;6.90;;
38609;SDS011;24367;51.640;9.566;2023-02-10T11:15:57;7.50;;;5.78;;
38609;SDS011;24367;51.640;9.566;2023-02-10T11:18:24;9.88;;;6.15;;
38609;SDS011;24367;51.640;9.566;2023-02-10T11:20:52;8.45;;;5.78;;
38609;SDS011;24367;51.640;9.566;2023-02-10T11:23:21;8.43;;;6.55;;
38609;SDS011;24367;51.640;9.566;2023-02-10T11:25:54;7.68;;;5.90;;
38609;SDS011;24367;51.640;9.566;2023-02-10T11:28:24;7.55;;;5.57;;
38609;SDS011;24367;51.640;9.566;2023-02-10T11:30:57;7.82;;;6.35;;
38609;SDS011;24367;51.640;9.566;2023-02-10T11:33:25;8.75;;;6.28;;
38609;SDS011;24367;51.640;9.566;2023-02-10T11:35:55;9.15;;;6.47;;
38609;SDS011;24367;51.640;9.566;2023-02-10T11:38:25;8.88;;;6.38;;
38609;SDS011;24367;51.640;9.566;2023-02-10T11:40:53;10.38;;;6.22;;
38609;SDS011;24367;51.640;9.566;2023-02-10T11:43:24;8.88;;;6.50;;
38609;SDS011;24367;51.640;9.566;2023-02-10T11:45:54;7.85;;;5.68;;
38609;SDS011;24367;51.640;9.566;2023-02-10T11:48:22;7.22;;;5.68;;
38609;SDS011;24367;51.640;9.566;2023-02-10T11:50:59;7.65;;;5.85;;
38609;SDS011;24367;51.640;9.566;2023-02-10T11:53:27;7.38;;;6.03;;
38609;SDS011;24367;51.640;9.566;2023-02-10T11:55:59;7.50;;;6.03;;
38609;SDS011;24367;51.640;9.566;2023-02-10T11:58:39;8.02;;;6.53;;
38609;SDS011;24367;51.640;9.566;2023-02-10T12:01:29;8.23;;;6.30;;
38609;SDS011;24367;51.640;9.566;2023-02-10T12:04:12;7.75;;;5.43;;
38609;SDS011;24367;51.640;9.566;2023-02-10T12:06:45;7.93;;;5.72;;
38609;SDS011;24367;51.640;9.566;2023-02-10T12:09:20;7.38;;;6.38;;
38609;SDS011;24367;51.640;9.566;2023-02-10T12:11:53;7.55;;;5.72;;
38609;SDS011;24367;51.640;9.566;2023-02-10T12:14:28;8.17;;;6.03;;
38609;SDS011;24367;51.640;9.566;2023-02-10T12:17:25;7.47;;;5.40;;
38609;SDS011;24367;51.640;9.566;2023-02-10T12:19:57;8.13;;;6.22;;
38609;SDS011;24367;51.640;9.566;2023-02-10T12:22:43;7.60;;;5.78;;
38609;SDS011;24367;51.640;9.566;2023-02-10T12:25:19;8.32;;;6.18;;
38609;SDS011;24367;51.640;9.566;2023-02-10T12:27:51;9.95;;;5.95;;
38609;SDS011;24367;51.640;9.566;2023-02-10T12:30:28;10.70;;;5.60;;
38609;SDS011;24367;51.640;9.566;2023-02-10T12:33:00;8.95;;;5.38;;
38609;SDS011;24367;51.640;9.566;2023-02-10T12:35:39;8.88;;;5.70;;
38609;SDS011;24367;51.640;9.566;2023-02-10T12:38:16;8.57;;;5.60;;
38609;SDS011;24367;51.640;9.566;2023-02-10T12:40:51;11.15;;;5.97;;
38609;SDS011;24367;51.640;9.566;2023-02-10T12:43:28;7.90;;;5.40;;
38609;SDS011;24367;51.640;9.566;2023-02-10T12:46:02;8.05;;;5.97;;
38609;SDS011;24367;51.640;9.566;2023-02-10T12:48:32;7.22;;;5.45;;
38609;SDS011;24367;51.640;9.566;2023-02-10T12:51:13;6.18;;;5.18;;
38609;SDS011;24367;51.640;9.566;2023-02-10T12:53:47;6.50;;;5.25;;
38609;SDS011;24367;51.640;9.566;2023-02-10T12:56:15;6.15;;;5.00;;
38609;SDS011;24367;51.640;9.566;2023-02-10T12:58:46;6.88;;;5.40;;
38609;SDS011;24367;51.640;9.566;2023-02-10T13:01:19;6.20;;;4.80;;
38609;SDS011;24367;51.640;9.566;2023-02-10T13:03:49;6.60;;;4.90;;
38609;SDS011;24367;51.640;9.566;2023-02-10T13:06:18;6.88;;;4.72;;
38609;SDS011;24367;51.640;9.566;2023-02-10T13:08:50;5.82;;;5.13;;
38609;SDS011;24367;51.640;9.566;2023-02-10T13:11:20;6.68;;;5.28;;
38609;SDS011;24367;51.640;9.566;2023-02-10T13:13:49;5.85;;;4.88;;
38609;SDS011;24367;51.640;9.566;2023-02-10T13:16:18;7.78;;;5.38;;
38609;SDS011;24367;51.640;9.566;2023-02-10T13:18:48;5.90;;;5.07;;
38609;SDS011;24367;51.640;9.566;2023-02-10T13:21:17;7.10;;;5.38;;
38609;SDS011;24367;51.640;9.566;2023-02-10T13:23:49;7.20;;;4.80;;
38609;SDS011;24367;51.640;9.566;2023-02-10T13:26:25;6.47;;;4.85;;
38609;SDS011;24367;51.640;9.566;2023-02-10T13:29:01;5.30;;;4.32;;
38609;SDS011;24367;51.640;9.566;2023-02-10T13:31:40;6.20;;;4.78;;
38609;SDS011;24367;51.640;9.566;2023-02-10T13:34:13;6.25;;;5.25;;
38609;SDS011;24367;51.640;9.566;2023-02-10T13:36:42;6.88;;;5.13;;
38609;SDS011;24367;51.640;9.566;2023-02-10T13:39:15;5.68;;;4.70;;
38609;SDS011;24367;51.640;9.566;2023-02-10T13:41:43;6.28;;;4.90;;
38609;SDS011;24367;51.640;9.566;2023-02-10T13:44:19;5.93;;;4.32;;
38609;SDS011;24367;51.640;9.566;2023-02-10T13:46:51;6.40;;;5.00;;
38609;SDS011;24367;51.640;9.566;2023-02-10T13:49:20;5.65;;;4.80;;
38609;SDS011;24367;51.640;9.566;2023-02-10T13:51:47;6.28;;;4.50;;
38609;SDS011;24367;51.640;9.566;2023-02-10T13:54:24;7.32;;;5.10;;
38609;SDS011;24367;51.640;9.566;2023-02-10T13:56:52;6.55;;;4.60;;
38609;SDS011;24367;51.640;9.566;2023-02-10T13:59:23;7.32;;;4.78;;
38609;SDS011;24367;51.640;9.566;2023-02-10T14:02:02;5.10;;;4.32;;
38609;SDS011;24367;51.640;9.566;2023-02-10T14:04:38;6.90;;;4.63;;
38609;SDS011;24367;51.640;9.566;2023-02-10T14:07:13;5.30;;;4.40;;
38609;SDS011;24367;51.640;9.566;2023-02-10T14:09:41;5.35;;;4.45;;
38609;SDS011;24367;51.640;9.566;2023-02-10T14:12:24;5.45;;;4.55;;
38609;SDS011;24367;51.640;9.566;2023-02-10T14:14:52;5.38;;;4.45;;
38609;SDS011;24367;51.640;9.566;2023-02-10T14:17:21;5.85;;;4.57;;
38609;SDS011;24367;51.640;9.566;2023-02-10T14:19:55;6.80;;;4.88;;
38609;SDS011;24367;51.640;9.566;2023-02-10T14:22:23;5.10;;;4.53;;
38609;SDS011;24367;51.640;9.566;2023-02-10T14:24:50;6.93;;;4.75;;
38609;SDS011;24367;51.640;9.566;2023-02-10T14:27:19;5.95;;;4.50;;
38609;SDS011;24367;51.640;9.566;2023-02-10T14:29:47;6.50;;;4.18;;
38609;SDS011;24367;51.640;9.566;2023-02-10T14:32:15;5.82;;;4.50;;
38609;SDS011;24367;51.640;9.566;2023-02-10T14:34:52;4.88;;;4.00;;
38609;SDS011;24367;51.640;9.566;2023-02-10T14:37:20;4.95;;;4.00;;
38609;SDS011;24367;51.640;9.566;2023-02-10T14:39:51;9.13;;;5.20;;
38609;SDS011;24367;51.640;9.566;2023-02-10T14:42:18;15.23;;;13.73;;
38609;SDS011;24367;51.640;9.566;2023-02-10T14:44:45;19.92;;;17.38;;
38609;SDS011;24367;51.640;9.566;2023-02-10T14:47:16;21.42;;;19.13;;
38609;SDS011;24367;51.640;9.566;2023-02-10T14:49:43;20.00;;;17.92;;
38609;SDS011;24367;51.640;9.566;2023-02-10T14:52:21;21.92;;;19.73;;
38609;SDS011;24367;51.640;9.566;2023-02-10T14:54:49;20.92;;;18.73;;
38609;SDS011;24367;51.640;9.566;2023-02-10T14:57:15;22.10;;;19.77;;